sensor_id;sensor_type;location;lat;lon;timestamp;temperature;humidity
39371;DHT22;25099;51.946;4.838;2024-01-10T00:01:16;-1.30;99.70
39371;DHT22;25099;51.946;4.838;2024-01-10T00:03:43;-1.40;99.90
39371;DHT22;25099;51.946;4.838;2024-01-10T00:06:09;-1.30;99.90
39371;DHT22;25099;51.946;4.838;2024-01-10T00:08:37;-1.40;99.90
39371;DHT22;25099;51.946;4.838;2024-01-10T00:11:02;-1.40;99.90
39371;DHT22;25099;51.946;4.838;2024-01-10T00:13:30;-1.40;99.90
39371;DHT22;25099;51.946;4.838;2024-01-10T00:15:56;-1.40;99.90
39371;DHT22;25099;51.946;4.838;2024-01-10T00:18:24;-1.40;99.90
39371;DHT22;25099;51.946;4.838;2024-01-10T00:20:51;-1.40;99.90
39371;DHT22;25099;51.946;4.838;2024-01-10T00:23:19;-1.50;99.90
39371;DHT22;25099;51.946;4.838;2024-01-10T00:25:45;-1.50;99.90
39371;DHT22;25099;51.946;4.838;2024-01-10T00:28:10;-1.50;99.90
39371;DHT22;25099;51.946;4.838;2024-01-10T00:30:37;-1.50;99.90
39371;DHT22;25099;51.946;4.838;2024-01-10T00:33:02;-0.40;99.90
39371;DHT22;25099;51.946;4.838;2024-01-10T00:35:28;-0.80;99.90
39371;DHT22;25099;51.946;4.838;2024-01-10T00:37:53;-1.50;99.90
39371;DHT22;25099;51.946;4.838;2024-01-10T00:40:19;-1.50;99.90
39371;DHT22;25099;51.946;4.838;2024-01-10T00:42:45;-1.50;99.90
39371;DHT22;25099;51.946;4.838;2024-01-10T00:45:10;-1.60;99.90
39371;DHT22;25099;51.946;4.838;2024-01-10T00:47:36;-1.60;99.90
39371;DHT22;25099;51.946;4.838;2024-01-10T00:50:01;-1.50;99.90
39371;DHT22;25099;51.946;4.838;2024-01-10T00:52:27;-1.50;99.90
39371;DHT22;25099;51.946;4.838;2024-01-10T00:54:53;-1.60;99.90
39371;DHT22;25099;51.946;4.838;2024-01-10T00:57:18;-1.50;99.90
39371;DHT22;25099;51.946;4.838;2024-01-10T00:59:44;-1.50;99.90
39371;DHT22;25099;51.946;4.838;2024-01-10T01:02:09;-1.50;99.90
39371;DHT22;25099;51.946;4.838;2024-01-10T01:04:35;-1.50;99.90
39371;DHT22;25099;51.946;4.838;2024-01-10T01:07:00;-1.50;99.90
39371;DHT22;25099;51.946;4.838;2024-01-10T01:09:26;-1.40;99.90
39371;DHT22;25099;51.946;4.838;2024-01-10T01:11:51;-1.50;99.90
39371;DHT22;25099;51.946;4.838;2024-01-10T01:14:17;-1.50;99.90
39371;DHT22;25099;51.946;4.838;2024-01-10T01:16:43;-1.50;99.90
39371;DHT22;25099;51.946;4.838;2024-01-10T01:19:08;-1.50;99.90
39371;DHT22;25099;51.946;4.838;2024-01-10T01:21:34;-1.50;99.90
39371;DHT22;25099;51.946;4.838;2024-01-10T01:23:59;-1.50;99.90
39371;DHT22;25099;51.946;4.838;2024-01-10T01:26:25;-1.50;99.90
39371;DHT22;25099;51.946;4.838;2024-01-10T01:28:50;-1.50;99.90
39371;DHT22;25099;51.946;4.838;2024-01-10T01:31:16;-1.50;99.90
39371;DHT22;25099;51.946;4.838;2024-01-10T01:33:41;-1.50;99.90
39371;DHT22;25099;51.946;4.838;2024-01-10T01:36:07;-1.50;99.90
39371;DHT22;25099;51.946;4.838;2024-01-10T01:38:33;-1.60;99.90
39371;DHT22;25099;51.946;4.838;2024-01-10T01:40:58;-1.60;99.90
39371;DHT22;25099;51.946;4.838;2024-01-10T01:43:25;-1.60;99.90
39371;DHT22;25099;51.946;4.838;2024-01-10T01:45:52;-0.40;99.90
39371;DHT22;25099;51.946;4.838;2024-01-10T01:48:19;-1.60;99.90
39371;DHT22;25099;51.946;4.838;2024-01-10T01:50:46;-1.60;99.90
39371;DHT22;25099;51.946;4.838;2024-01-10T01:53:14;-0.70;99.90
39371;DHT22;25099;51.946;4.838;2024-01-10T01:55:42;-1.50;99.90
39371;DHT22;25099;51.946;4.838;2024-01-10T01:58:08;-1.50;99.90
39371;DHT22;25099;51.946;4.838;2024-01-10T02:00:34;-1.50;99.90
39371;DHT22;25099;51.946;4.838;2024-01-10T02:03:01;-1.60;99.90
39371;DHT22;25099;51.946;4.838;2024-01-10T02:05:26;-1.50;99.90
39371;DHT22;25099;51.946;4.838;2024-01-10T02:07:52;-1.60;99.90
39371;DHT22;25099;51.946;4.838;2024-01-10T02:10:19;-1.60;99.90
39371;DHT22;25099;51.946;4.838;2024-01-10T02:12:45;-1.60;99.90
39371;DHT22;25099;51.946;4.838;2024-01-10T02:15:12;-1.60;99.90
39371;DHT22;25099;51.946;4.838;2024-01-10T02:17:38;-1.60;99.90
39371;DHT22;25099;51.946;4.838;2024-01-10T02:20:16;-1.60;99.90
39371;DHT22;25099;51.946;4.838;2024-01-10T02:22:46;-1.60;99.90
39371;DHT22;25099;51.946;4.838;2024-01-10T02:25:13;-1.70;99.90
39371;DHT22;25099;51.946;4.838;2024-01-10T02:27:42;-1.70;99.90
39371;DHT22;25099;51.946;4.838;2024-01-10T02:30:09;-1.70;99.90
39371;DHT22;25099;51.946;4.838;2024-01-10T02:32:35;-1.70;99.90
39371;DHT22;25099;51.946;4.838;2024-01-10T02:35:01;-1.70;99.90
39371;DHT22;25099;51.946;4.838;2024-01-10T02:37:27;-1.40;99.90
39371;DHT22;25099;51.946;4.838;2024-01-10T02:39:53;-1.70;99.90
39371;DHT22;25099;51.946;4.838;2024-01-10T02:42:18;-1.70;99.90
39371;DHT22;25099;51.946;4.838;2024-01-10T02:44:44;-1.70;99.90
39371;DHT22;25099;51.946;4.838;2024-01-10T02:47:11;-1.70;99.90
39371;DHT22;25099;51.946;4.838;2024-01-10T02:49:37;-1.70;99.90
39371;DHT22;25099;51.946;4.838;2024-01-10T02:52:03;-1.70;99.90
39371;DHT22;25099;51.946;4.838;2024-01-10T02:54:28;-1.70;99.90
39371;DHT22;25099;51.946;4.838;2024-01-10T02:56:54;-1.80;99.90
39371;DHT22;25099;51.946;4.838;2024-01-10T02:59:20;-1.80;99.90
39371;DHT22;25099;51.946;4.838;2024-01-10T03:01:45;-1.80;99.90
39371;DHT22;25099;51.946;4.838;2024-01-10T03:04:11;-1.80;99.90
39371;DHT22;25099;51.946;4.838;2024-01-10T03:06:36;-1.80;99.90
39371;DHT22;25099;51.946;4.838;2024-01-10T03:09:02;-1.80;99.90
39371;DHT22;25099;51.946;4.838;2024-01-10T03:11:28;-1.80;99.90
39371;DHT22;25099;51.946;4.838;2024-01-10T03:14:07;-1.80;99.90
39371;DHT22;25099;51.946;4.838;2024-01-10T03:16:33;-1.80;99.90
39371;DHT22;25099;51.946;4.838;2024-01-10T03:18:58;-1.90;99.90
39371;DHT22;25099;51.946;4.838;2024-01-10T03:21:24;-1.90;99.90
39371;DHT22;25099;51.946;4.838;2024-01-10T03:23:57;-1.90;99.90
39371;DHT22;25099;51.946;4.838;2024-01-10T03:26:24;-2.10;99.90
39371;DHT22;25099;51.946;4.838;2024-01-10T03:28:52;-2.00;99.90
39371;DHT22;25099;51.946;4.838;2024-01-10T03:31:18;-2.00;99.90
39371;DHT22;25099;51.946;4.838;2024-01-10T03:33:44;-2.10;99.90
39371;DHT22;25099;51.946;4.838;2024-01-10T03:36:12;-2.10;99.90
39371;DHT22;25099;51.946;4.838;2024-01-10T03:38:38;-2.00;99.90
39371;DHT22;25099;51.946;4.838;2024-01-10T03:41:04;-2.10;99.90
39371;DHT22;25099;51.946;4.838;2024-01-10T03:43:29;-2.10;99.90
39371;DHT22;25099;51.946;4.838;2024-01-10T03:45:56;-2.00;99.90
39371;DHT22;25099;51.946;4.838;2024-01-10T03:48:22;-2.10;99.90
39371;DHT22;25099;51.946;4.838;2024-01-10T03:50:48;-2.00;99.90
39371;DHT22;25099;51.946;4.838;2024-01-10T03:53:13;-2.00;99.90
39371;DHT22;25099;51.946;4.838;2024-01-10T03:55:39;-2.00;99.90
39371;DHT22;25099;51.946;4.838;2024-01-10T03:58:05;-2.00;99.90
39371;DHT22;25099;51.946;4.838;2024-01-10T04:00:30;-2.00;99.90
39371;DHT22;25099;51.946;4.838;2024-01-10T04:02:56;-2.00;99.90
39371;DHT22;25099;51.946;4.838;2024-01-10T04:05:22;-2.00;99.90
39371;DHT22;25099;51.946;4.838;2024-01-10T04:07:50;-2.00;99.90
39371;DHT22;25099;51.946;4.838;2024-01-10T04:10:15;-2.00;99.90
39371;DHT22;25099;51.946;4.838;2024-01-10T04:12:41;-2.00;99.90
39371;DHT22;25099;51.946;4.838;2024-01-10T04:15:07;-2.10;99.90
39371;DHT22;25099;51.946;4.838;2024-01-10T04:17:32;-2.20;99.90
39371;DHT22;25099;51.946;4.838;2024-01-10T04:19:58;-2.30;99.90
39371;DHT22;25099;51.946;4.838;2024-01-10T04:22:24;-2.20;99.90
39371;DHT22;25099;51.946;4.838;2024-01-10T04:24:50;-2.20;99.90
39371;DHT22;25099;51.946;4.838;2024-01-10T04:27:16;-2.20;99.90
39371;DHT22;25099;51.946;4.838;2024-01-10T04:29:43;-2.20;99.90
39371;DHT22;25099;51.946;4.838;2024-01-10T04:32:09;-2.20;99.90
39371;DHT22;25099;51.946;4.838;2024-01-10T04:34:35;-2.10;99.90
39371;DHT22;25099;51.946;4.838;2024-01-10T04:37:00;-2.10;99.90
39371;DHT22;25099;51.946;4.838;2024-01-10T04:39:26;-2.10;99.90
39371;DHT22;25099;51.946;4.838;2024-01-10T04:41:51;-2.10;99.90
39371;DHT22;25099;51.946;4.838;2024-01-10T04:44:17;-2.20;99.90
39371;DHT22;25099;51.946;4.838;2024-01-10T04:46:43;-2.20;99.90
39371;DHT22;25099;51.946;4.838;2024-01-10T04:49:08;-2.20;99.90
39371;DHT22;25099;51.946;4.838;2024-01-10T04:51:34;-2.20;99.90
39371;DHT22;25099;51.946;4.838;2024-01-10T04:54:00;-2.20;99.90
39371;DHT22;25099;51.946;4.838;2024-01-10T04:56:26;-2.20;99.90
39371;DHT22;25099;51.946;4.838;2024-01-10T04:58:51;-2.30;99.90
39371;DHT22;25099;51.946;4.838;2024-01-10T05:01:17;-2.30;99.90
39371;DHT22;25099;51.946;4.838;2024-01-10T05:03:43;-2.20;99.90
39371;DHT22;25099;51.946;4.838;2024-01-10T05:06:09;-2.20;99.90
39371;DHT22;25099;51.946;4.838;2024-01-10T05:08:34;-2.30;99.90
39371;DHT22;25099;51.946;4.838;2024-01-10T05:11:00;-2.20;99.90
39371;DHT22;25099;51.946;4.838;2024-01-10T05:13:26;-2.20;99.90
39371;DHT22;25099;51.946;4.838;2024-01-10T05:15:51;-2.20;99.90
39371;DHT22;25099;51.946;4.838;2024-01-10T05:18:18;-2.20;99.90
39371;DHT22;25099;51.946;4.838;2024-01-10T05:20:44;-2.20;99.90
39371;DHT22;25099;51.946;4.838;2024-01-10T05:23:10;-2.30;99.90
39371;DHT22;25099;51.946;4.838;2024-01-10T05:25:36;-2.30;99.90
39371;DHT22;25099;51.946;4.838;2024-01-10T05:28:01;-2.30;99.90
39371;DHT22;25099;51.946;4.838;2024-01-10T05:30:27;-2.30;99.90
39371;DHT22;25099;51.946;4.838;2024-01-10T05:32:52;-2.30;99.90
39371;DHT22;25099;51.946;4.838;2024-01-10T05:35:18;-2.40;99.90
39371;DHT22;25099;51.946;4.838;2024-01-10T05:37:43;-2.40;99.90
39371;DHT22;25099;51.946;4.838;2024-01-10T05:40:09;-2.40;99.90
39371;DHT22;25099;51.946;4.838;2024-01-10T05:42:35;-2.40;99.90
39371;DHT22;25099;51.946;4.838;2024-01-10T05:45:01;-2.40;99.90
39371;DHT22;25099;51.946;4.838;2024-01-10T05:47:27;-2.50;99.90
39371;DHT22;25099;51.946;4.838;2024-01-10T05:49:53;-2.50;99.90
39371;DHT22;25099;51.946;4.838;2024-01-10T05:52:19;-2.50;99.90
39371;DHT22;25099;51.946;4.838;2024-01-10T05:54:45;-2.40;99.90
39371;DHT22;25099;51.946;4.838;2024-01-10T05:57:14;-2.40;99.90
39371;DHT22;25099;51.946;4.838;2024-01-10T05:59:39;-2.40;99.90
39371;DHT22;25099;51.946;4.838;2024-01-10T06:02:05;-2.40;99.90
39371;DHT22;25099;51.946;4.838;2024-01-10T06:04:31;-2.30;99.90
39371;DHT22;25099;51.946;4.838;2024-01-10T06:07:00;-2.40;99.90
39371;DHT22;25099;51.946;4.838;2024-01-10T06:09:26;-2.40;99.90
39371;DHT22;25099;51.946;4.838;2024-01-10T06:11:51;-2.40;99.90
39371;DHT22;25099;51.946;4.838;2024-01-10T06:14:17;-2.30;99.90
39371;DHT22;25099;51.946;4.838;2024-01-10T06:16:43;-2.30;99.90
39371;DHT22;25099;51.946;4.838;2024-01-10T06:19:13;-2.30;99.90
39371;DHT22;25099;51.946;4.838;2024-01-10T06:21:38;-2.40;99.90
39371;DHT22;25099;51.946;4.838;2024-01-10T06:24:05;-2.30;99.90
39371;DHT22;25099;51.946;4.838;2024-01-10T06:26:31;-2.40;99.90
39371;DHT22;25099;51.946;4.838;2024-01-10T06:28:57;-2.30;99.90
39371;DHT22;25099;51.946;4.838;2024-01-10T06:31:22;-2.40;99.90
39371;DHT22;25099;51.946;4.838;2024-01-10T06:33:49;-2.40;99.90
39371;DHT22;25099;51.946;4.838;2024-01-10T06:36:14;-2.40;99.90
39371;DHT22;25099;51.946;4.838;2024-01-10T06:38:40;-2.30;99.90
39371;DHT22;25099;51.946;4.838;2024-01-10T06:41:09;-2.40;99.90
39371;DHT22;25099;51.946;4.838;2024-01-10T06:43:36;-2.40;99.90
39371;DHT22;25099;51.946;4.838;2024-01-10T06:46:01;-2.50;99.90
39371;DHT22;25099;51.946;4.838;2024-01-10T06:48:28;-2.50;99.90
39371;DHT22;25099;51.946;4.838;2024-01-10T06:50:54;-2.50;99.90
39371;DHT22;25099;51.946;4.838;2024-01-10T06:53:21;-2.60;99.90
39371;DHT22;25099;51.946;4.838;2024-01-10T06:55:46;-2.50;99.90
39371;DHT22;25099;51.946;4.838;2024-01-10T06:58:12;-2.50;99.90
39371;DHT22;25099;51.946;4.838;2024-01-10T07:00:37;-2.50;99.90
39371;DHT22;25099;51.946;4.838;2024-01-10T07:03:04;-2.50;99.90
39371;DHT22;25099;51.946;4.838;2024-01-10T07:05:29;-2.40;99.90
39371;DHT22;25099;51.946;4.838;2024-01-10T07:07:57;-2.40;99.90
39371;DHT22;25099;51.946;4.838;2024-01-10T07:10:23;-2.40;99.90
39371;DHT22;25099;51.946;4.838;2024-01-10T07:12:55;-2.40;99.90
39371;DHT22;25099;51.946;4.838;2024-01-10T07:15:21;-2.40;99.90
39371;DHT22;25099;51.946;4.838;2024-01-10T07:17:48;-2.40;99.90
39371;DHT22;25099;51.946;4.838;2024-01-10T07:20:13;-2.40;99.90
39371;DHT22;25099;51.946;4.838;2024-01-10T07:22:39;-2.50;99.90
39371;DHT22;25099;51.946;4.838;2024-01-10T07:25:10;-2.50;99.90
39371;DHT22;25099;51.946;4.838;2024-01-10T07:27:36;-2.40;99.90
39371;DHT22;25099;51.946;4.838;2024-01-10T07:30:06;-2.50;99.90
39371;DHT22;25099;51.946;4.838;2024-01-10T07:32:37;-2.50;99.90
39371;DHT22;25099;51.946;4.838;2024-01-10T07:35:02;-2.40;99.90
39371;DHT22;25099;51.946;4.838;2024-01-10T07:37:28;-2.40;99.90
39371;DHT22;25099;51.946;4.838;2024-01-10T07:39:53;-2.40;99.90
39371;DHT22;25099;51.946;4.838;2024-01-10T07:42:19;-2.30;99.90
39371;DHT22;25099;51.946;4.838;2024-01-10T07:44:45;-2.30;99.90
39371;DHT22;25099;51.946;4.838;2024-01-10T07:47:10;-2.10;99.90
39371;DHT22;25099;51.946;4.838;2024-01-10T07:49:36;-2.20;99.90
39371;DHT22;25099;51.946;4.838;2024-01-10T07:52:03;-2.30;99.90
39371;DHT22;25099;51.946;4.838;2024-01-10T07:54:29;-2.30;99.90
39371;DHT22;25099;51.946;4.838;2024-01-10T07:56:57;-2.30;99.90
39371;DHT22;25099;51.946;4.838;2024-01-10T07:59:23;-2.30;99.90
39371;DHT22;25099;51.946;4.838;2024-01-10T08:01:56;-2.30;99.90
39371;DHT22;25099;51.946;4.838;2024-01-10T08:04:25;-2.30;99.90
39371;DHT22;25099;51.946;4.838;2024-01-10T08:06:51;-2.30;99.90
39371;DHT22;25099;51.946;4.838;2024-01-10T08:09:17;-2.30;99.90
39371;DHT22;25099;51.946;4.838;2024-01-10T08:11:44;-2.40;99.90
39371;DHT22;25099;51.946;4.838;2024-01-10T08:14:11;-2.40;99.90
39371;DHT22;25099;51.946;4.838;2024-01-10T08:16:36;-2.40;99.90
39371;DHT22;25099;51.946;4.838;2024-01-10T08:19:02;-2.30;99.90
39371;DHT22;25099;51.946;4.838;2024-01-10T08:21:27;-2.30;99.90
39371;DHT22;25099;51.946;4.838;2024-01-10T08:23:53;-2.40;99.90
39371;DHT22;25099;51.946;4.838;2024-01-10T08:26:18;-2.40;99.90
39371;DHT22;25099;51.946;4.838;2024-01-10T08:28:44;-2.30;99.90
39371;DHT22;25099;51.946;4.838;2024-01-10T08:31:09;-2.30;99.90
39371;DHT22;25099;51.946;4.838;2024-01-10T08:33:35;-2.30;99.90
39371;DHT22;25099;51.946;4.838;2024-01-10T08:36:01;-2.30;99.90
39371;DHT22;25099;51.946;4.838;2024-01-10T08:38:26;-2.30;99.90
39371;DHT22;25099;51.946;4.838;2024-01-10T08:40:52;-2.30;99.90
39371;DHT22;25099;51.946;4.838;2024-01-10T08:43:18;-2.20;99.90
39371;DHT22;25099;51.946;4.838;2024-01-10T08:45:44;-2.20;99.90
39371;DHT22;25099;51.946;4.838;2024-01-10T08:48:09;-2.20;99.90
39371;DHT22;25099;51.946;4.838;2024-01-10T08:50:37;-2.20;99.90
39371;DHT22;25099;51.946;4.838;2024-01-10T08:53:03;-2.30;99.90
39371;DHT22;25099;51.946;4.838;2024-01-10T08:55:33;-2.20;99.90
39371;DHT22;25099;51.946;4.838;2024-01-10T08:57:59;-2.20;99.90
39371;DHT22;25099;51.946;4.838;2024-01-10T09:00:25;-2.10;99.90
39371;DHT22;25099;51.946;4.838;2024-01-10T09:02:50;-2.10;99.90
39371;DHT22;25099;51.946;4.838;2024-01-10T09:05:16;-2.10;99.90
39371;DHT22;25099;51.946;4.838;2024-01-10T09:07:42;-2.00;99.90
39371;DHT22;25099;51.946;4.838;2024-01-10T09:10:10;-2.00;99.90
39371;DHT22;25099;51.946;4.838;2024-01-10T09:12:36;-2.00;99.90
39371;DHT22;25099;51.946;4.838;2024-01-10T09:15:02;-1.90;99.90
39371;DHT22;25099;51.946;4.838;2024-01-10T09:17:28;-1.90;99.90
39371;DHT22;25099;51.946;4.838;2024-01-10T09:19:54;-1.90;99.90
39371;DHT22;25099;51.946;4.838;2024-01-10T09:22:19;-1.90;99.90
39371;DHT22;25099;51.946;4.838;2024-01-10T09:24:45;-1.80;99.90
39371;DHT22;25099;51.946;4.838;2024-01-10T09:27:11;-1.80;99.90
39371;DHT22;25099;51.946;4.838;2024-01-10T09:29:36;-1.70;99.90
39371;DHT22;25099;51.946;4.838;2024-01-10T09:32:02;-1.70;99.90
39371;DHT22;25099;51.946;4.838;2024-01-10T09:34:29;-1.70;99.90
39371;DHT22;25099;51.946;4.838;2024-01-10T09:36:54;-1.70;99.90
39371;DHT22;25099;51.946;4.838;2024-01-10T09:39:20;-1.70;99.90
39371;DHT22;25099;51.946;4.838;2024-01-10T09:41:47;-1.60;99.90
39371;DHT22;25099;51.946;4.838;2024-01-10T09:44:15;-1.60;99.90
39371;DHT22;25099;51.946;4.838;2024-01-10T09:46:44;-1.50;99.90
39371;DHT22;25099;51.946;4.838;2024-01-10T09:49:11;-1.50;99.90
39371;DHT22;25099;51.946;4.838;2024-01-10T09:51:37;-1.50;99.90
39371;DHT22;25099;51.946;4.838;2024-01-10T09:54:03;-1.40;99.90
39371;DHT22;25099;51.946;4.838;2024-01-10T09:56:31;-1.40;99.90
39371;DHT22;25099;51.946;4.838;2024-01-10T09:58:58;-1.30;99.90
39371;DHT22;25099;51.946;4.838;2024-01-10T10:01:26;-1.30;99.90
39371;DHT22;25099;51.946;4.838;2024-01-10T10:03:53;-1.20;99.90
39371;DHT22;25099;51.946;4.838;2024-01-10T10:06:21;-1.20;99.90
39371;DHT22;25099;51.946;4.838;2024-01-10T10:08:47;-1.10;99.90
39371;DHT22;25099;51.946;4.838;2024-01-10T10:11:13;-1.10;99.90
39371;DHT22;25099;51.946;4.838;2024-01-10T10:13:40;-1.00;99.90
39371;DHT22;25099;51.946;4.838;2024-01-10T10:16:07;-1.00;99.90
39371;DHT22;25099;51.946;4.838;2024-01-10T10:18:35;-1.00;99.90
39371;DHT22;25099;51.946;4.838;2024-01-10T10:21:08;-0.90;99.90
39371;DHT22;25099;51.946;4.838;2024-01-10T10:23:41;-0.90;99.90
39371;DHT22;25099;51.946;4.838;2024-01-10T10:26:11;-0.90;99.90
39371;DHT22;25099;51.946;4.838;2024-01-10T10:28:40;-0.80;99.90
39371;DHT22;25099;51.946;4.838;2024-01-10T10:31:06;-0.80;99.90
39371;DHT22;25099;51.946;4.838;2024-01-10T10:33:33;-0.70;99.90
39371;DHT22;25099;51.946;4.838;2024-01-10T10:35:59;-0.70;99.70
39371;DHT22;25099;51.946;4.838;2024-01-10T10:38:24;-0.70;99.00
39371;DHT22;25099;51.946;4.838;2024-01-10T10:40:50;-0.60;98.90
39371;DHT22;25099;51.946;4.838;2024-01-10T10:43:18;-0.70;99.00
39371;DHT22;25099;51.946;4.838;2024-01-10T10:45:48;-0.60;98.80
39371;DHT22;25099;51.946;4.838;2024-01-10T10:48:17;-0.60;98.80
39371;DHT22;25099;51.946;4.838;2024-01-10T10:50:59;-0.60;99.00
39371;DHT22;25099;51.946;4.838;2024-01-10T10:53:29;-0.60;99.10
39371;DHT22;25099;51.946;4.838;2024-01-10T10:55:57;-0.60;99.30
39371;DHT22;25099;51.946;4.838;2024-01-10T10:58:24;-0.50;99.20
39371;DHT22;25099;51.946;4.838;2024-01-10T11:00:50;-0.40;98.80
39371;DHT22;25099;51.946;4.838;2024-01-10T11:03:16;-0.40;98.50
39371;DHT22;25099;51.946;4.838;2024-01-10T11:05:43;-0.30;98.50
39371;DHT22;25099;51.946;4.838;2024-01-10T11:08:12;-0.40;98.50
39371;DHT22;25099;51.946;4.838;2024-01-10T11:10:40;-0.30;98.20
39371;DHT22;25099;51.946;4.838;2024-01-10T11:24:44;0.00;97.80
39371;DHT22;25099;51.946;4.838;2024-01-10T11:27:14;0.00;97.90
39371;DHT22;25099;51.946;4.838;2024-01-10T11:29:40;0.00;97.70
39371;DHT22;25099;51.946;4.838;2024-01-10T11:32:07;0.00;97.60
39371;DHT22;25099;51.946;4.838;2024-01-10T11:34:35;0.10;97.40
39371;DHT22;25099;51.946;4.838;2024-01-10T11:37:13;0.20;97.20
39371;DHT22;25099;51.946;4.838;2024-01-10T11:39:42;0.20;97.00
39371;DHT22;25099;51.946;4.838;2024-01-10T11:42:11;0.20;97.00
39371;DHT22;25099;51.946;4.838;2024-01-10T11:44:50;0.30;97.10
39371;DHT22;25099;51.946;4.838;2024-01-10T11:47:17;0.80;97.10
39371;DHT22;25099;51.946;4.838;2024-01-10T11:49:58;0.30;97.00
39371;DHT22;25099;51.946;4.838;2024-01-10T11:52:33;0.40;96.50
39371;DHT22;25099;51.946;4.838;2024-01-10T11:55:02;0.40;97.30
39371;DHT22;25099;51.946;4.838;2024-01-10T11:57:31;0.50;96.50
39371;DHT22;25099;51.946;4.838;2024-01-10T11:59:59;0.50;96.80
39371;DHT22;25099;51.946;4.838;2024-01-10T12:02:26;0.50;96.50
39371;DHT22;25099;51.946;4.838;2024-01-10T12:04:53;0.60;96.40
39371;DHT22;25099;51.946;4.838;2024-01-10T12:07:19;0.60;96.40
39371;DHT22;25099;51.946;4.838;2024-01-10T12:09:46;0.60;96.40
39371;DHT22;25099;51.946;4.838;2024-01-10T12:12:15;0.70;96.40
39371;DHT22;25099;51.946;4.838;2024-01-10T12:14:41;0.80;96.10
39371;DHT22;25099;51.946;4.838;2024-01-10T12:17:08;0.90;95.80
39371;DHT22;25099;51.946;4.838;2024-01-10T12:19:35;0.90;95.90
39371;DHT22;25099;51.946;4.838;2024-01-10T12:22:03;0.90;96.00
39371;DHT22;25099;51.946;4.838;2024-01-10T12:24:29;0.90;96.00
39371;DHT22;25099;51.946;4.838;2024-01-10T12:26:55;0.90;95.90
39371;DHT22;25099;51.946;4.838;2024-01-10T12:29:21;1.00;95.80
39371;DHT22;25099;51.946;4.838;2024-01-10T12:31:48;1.10;95.80
39371;DHT22;25099;51.946;4.838;2024-01-10T12:34:14;1.10;95.70
39371;DHT22;25099;51.946;4.838;2024-01-10T12:36:43;1.10;95.70
39371;DHT22;25099;51.946;4.838;2024-01-10T12:39:09;1.20;95.50
39371;DHT22;25099;51.946;4.838;2024-01-10T12:41:36;1.20;95.20
39371;DHT22;25099;51.946;4.838;2024-01-10T12:44:02;1.30;95.50
39371;DHT22;25099;51.946;4.838;2024-01-10T12:46:31;1.40;95.40
39371;DHT22;25099;51.946;4.838;2024-01-10T12:49:03;1.40;95.20
39371;DHT22;25099;51.946;4.838;2024-01-10T12:51:31;1.40;95.00
39371;DHT22;25099;51.946;4.838;2024-01-10T12:53:57;1.50;94.70
39371;DHT22;25099;51.946;4.838;2024-01-10T12:56:24;1.50;95.10
39371;DHT22;25099;51.946;4.838;2024-01-10T12:58:50;1.60;95.20
39371;DHT22;25099;51.946;4.838;2024-01-10T13:01:16;1.50;95.30
39371;DHT22;25099;51.946;4.838;2024-01-10T13:03:42;1.50;95.00
39371;DHT22;25099;51.946;4.838;2024-01-10T13:06:09;1.60;95.10
39371;DHT22;25099;51.946;4.838;2024-01-10T13:08:35;1.60;94.90
39371;DHT22;25099;51.946;4.838;2024-01-10T13:11:01;1.70;94.80
39371;DHT22;25099;51.946;4.838;2024-01-10T13:13:29;1.60;94.80
39371;DHT22;25099;51.946;4.838;2024-01-10T13:15:55;1.60;94.60
39371;DHT22;25099;51.946;4.838;2024-01-10T13:18:21;1.70;94.60
39371;DHT22;25099;51.946;4.838;2024-01-10T13:20:47;1.70;94.50
39371;DHT22;25099;51.946;4.838;2024-01-10T13:23:13;1.70;94.60
39371;DHT22;25099;51.946;4.838;2024-01-10T13:25:41;1.70;94.50
39371;DHT22;25099;51.946;4.838;2024-01-10T13:28:06;1.80;94.50
39371;DHT22;25099;51.946;4.838;2024-01-10T13:30:32;1.80;94.50
39371;DHT22;25099;51.946;4.838;2024-01-10T13:32:58;1.80;94.20
39371;DHT22;25099;51.946;4.838;2024-01-10T13:35:26;1.90;94.40
39371;DHT22;25099;51.946;4.838;2024-01-10T13:37:52;1.90;94.30
39371;DHT22;25099;51.946;4.838;2024-01-10T13:40:18;1.90;94.50
39371;DHT22;25099;51.946;4.838;2024-01-10T13:42:49;1.90;94.60
39371;DHT22;25099;51.946;4.838;2024-01-10T13:45:15;1.90;94.50
39371;DHT22;25099;51.946;4.838;2024-01-10T13:47:42;2.00;94.30
39371;DHT22;25099;51.946;4.838;2024-01-10T13:50:08;2.00;94.60
39371;DHT22;25099;51.946;4.838;2024-01-10T13:52:34;2.00;94.50
39371;DHT22;25099;51.946;4.838;2024-01-10T13:55:00;2.00;94.50
39371;DHT22;25099;51.946;4.838;2024-01-10T13:57:26;2.00;94.30
39371;DHT22;25099;51.946;4.838;2024-01-10T13:59:52;2.00;94.30
39371;DHT22;25099;51.946;4.838;2024-01-10T14:02:23;2.00;94.30
39371;DHT22;25099;51.946;4.838;2024-01-10T14:04:49;2.00;94.50
39371;DHT22;25099;51.946;4.838;2024-01-10T14:07:14;2.00;94.60
39371;DHT22;25099;51.946;4.838;2024-01-10T14:09:41;2.00;94.10
39371;DHT22;25099;51.946;4.838;2024-01-10T14:12:06;2.00;94.10
39371;DHT22;25099;51.946;4.838;2024-01-10T14:14:32;2.00;94.30
39371;DHT22;25099;51.946;4.838;2024-01-10T14:16:58;2.00;94.40
39371;DHT22;25099;51.946;4.838;2024-01-10T14:19:24;2.00;94.40
39371;DHT22;25099;51.946;4.838;2024-01-10T14:21:49;2.00;94.20
39371;DHT22;25099;51.946;4.838;2024-01-10T14:24:15;2.00;94.20
39371;DHT22;25099;51.946;4.838;2024-01-10T14:26:41;2.00;94.30
39371;DHT22;25099;51.946;4.838;2024-01-10T14:29:07;2.00;94.50
39371;DHT22;25099;51.946;4.838;2024-01-10T14:31:32;2.00;94.60
39371;DHT22;25099;51.946;4.838;2024-01-10T14:33:58;2.00;94.90
39371;DHT22;25099;51.946;4.838;2024-01-10T14:36:24;1.90;95.00
39371;DHT22;25099;51.946;4.838;2024-01-10T14:38:51;1.90;94.80
39371;DHT22;25099;51.946;4.838;2024-01-10T14:41:17;1.90;94.90
39371;DHT22;25099;51.946;4.838;2024-01-10T14:43:42;1.90;94.70
39371;DHT22;25099;51.946;4.838;2024-01-10T14:46:08;1.90;94.80
39371;DHT22;25099;51.946;4.838;2024-01-10T14:48:35;1.90;94.90
39371;DHT22;25099;51.946;4.838;2024-01-10T14:51:02;1.90;95.00
39371;DHT22;25099;51.946;4.838;2024-01-10T14:53:30;1.90;95.30
39371;DHT22;25099;51.946;4.838;2024-01-10T14:55:55;2.30;95.40
39371;DHT22;25099;51.946;4.838;2024-01-10T14:58:21;1.80;95.50
39371;DHT22;25099;51.946;4.838;2024-01-10T15:00:47;1.80;95.80
39371;DHT22;25099;51.946;4.838;2024-01-10T15:03:13;1.80;96.00
39371;DHT22;25099;51.946;4.838;2024-01-10T15:05:40;1.70;95.90
39371;DHT22;25099;51.946;4.838;2024-01-10T15:08:06;1.70;96.00
39371;DHT22;25099;51.946;4.838;2024-01-10T15:10:33;1.80;95.70
39371;DHT22;25099;51.946;4.838;2024-01-10T15:12:59;1.70;95.50
39371;DHT22;25099;51.946;4.838;2024-01-10T15:15:25;1.70;95.60
39371;DHT22;25099;51.946;4.838;2024-01-10T15:17:51;1.70;95.70
39371;DHT22;25099;51.946;4.838;2024-01-10T15:20:16;1.70;95.70
39371;DHT22;25099;51.946;4.838;2024-01-10T15:22:42;1.70;95.40
39371;DHT22;25099;51.946;4.838;2024-01-10T15:25:08;1.70;95.40
39371;DHT22;25099;51.946;4.838;2024-01-10T15:27:34;1.70;95.40
39371;DHT22;25099;51.946;4.838;2024-01-10T15:29:59;1.70;95.30
39371;DHT22;25099;51.946;4.838;2024-01-10T15:32:25;1.70;95.30
39371;DHT22;25099;51.946;4.838;2024-01-10T15:34:51;1.60;95.40
39371;DHT22;25099;51.946;4.838;2024-01-10T15:37:17;1.60;95.50
39371;DHT22;25099;51.946;4.838;2024-01-10T15:39:42;1.60;95.40
39371;DHT22;25099;51.946;4.838;2024-01-10T15:42:08;1.50;95.50